createdAt,value
2018-02-16T00:01:11.740Z,59.23
2018-02-16T00:03:39.836Z,61.93
2018-02-16T00:06:07.940Z,72.37
2018-02-16T00:08:36.131Z,49.90
2018-02-16T00:11:04.350Z,64.10
2018-02-16T00:13:32.475Z,49.37
2018-02-16T00:16:00.596Z,72.70
2018-02-16T00:18:29.184Z,59.00
2018-02-16T00:20:57.321Z,68.17
2018-02-16T00:23:25.572Z,64.83
2018-02-16T00:25:53.854Z,49.57
2018-02-16T00:28:22.091Z,54.37
2018-02-16T00:30:50.286Z,57.83
2018-02-16T00:33:18.423Z,66.37
2018-02-16T00:35:46.591Z,66.83
2018-02-16T00:38:15.522Z,55.33
2018-02-16T00:40:43.659Z,74.17
2018-02-16T00:43:11.781Z,60.07
2018-02-16T00:45:39.872Z,55.13
2018-02-16T00:48:08.009Z,69.00
2018-02-16T00:50:36.153Z,71.57
2018-02-16T00:53:04.269Z,76.63
2018-02-16T00:55:32.553Z,78.60
2018-02-16T00:58:00.655Z,76.90
2018-02-16T01:00:28.779Z,71.00
2018-02-16T01:02:56.869Z,80.33
2018-02-16T01:05:24.964Z,77.47
2018-02-16T01:07:53.123Z,90.57
2018-02-16T01:10:21.271Z,82.33
2018-02-16T01:12:49.459Z,110.20
2018-02-16T01:15:17.548Z,97.93
2018-02-16T01:17:45.720Z,107.43
2018-02-16T01:20:13.844Z,114.40
2018-02-16T01:22:41.958Z,73.37
2018-02-16T01:25:10.062Z,85.10
2018-02-16T01:27:38.998Z,135.83
2018-02-16T01:30:07.132Z,104.93
2018-02-16T01:32:35.232Z,78.83
2018-02-16T01:35:03.846Z,81.13
2018-02-16T01:37:31.947Z,67.57
2018-02-16T01:40:00.093Z,105.20
2018-02-16T01:42:28.212Z,73.30
2018-02-16T01:44:56.312Z,93.43
2018-02-16T01:47:24.416Z,77.50
2018-02-16T01:50:05.218Z,79.13
2018-02-16T01:52:33.358Z,55.53
2018-02-16T01:55:01.472Z,71.40
2018-02-16T01:57:29.578Z,57.00
2018-02-16T01:59:57.676Z,57.53
2018-02-16T02:02:25.811Z,68.70
2018-02-16T02:04:53.931Z,55.67
2018-02-16T02:07:22.021Z,83.97
2018-02-16T02:09:50.130Z,64.70
2018-02-16T02:12:18.257Z,92.03
2018-02-16T02:14:46.449Z,81.33
2018-02-16T02:17:14.607Z,88.70
2018-02-16T02:19:43.389Z,43.30
2018-02-16T02:22:11.491Z,43.50
2018-02-16T02:24:39.617Z,68.87
2018-02-16T02:27:07.775Z,55.00
2018-02-16T02:29:35.873Z,65.53
2018-02-16T02:32:04.004Z,70.27
2018-02-16T02:34:32.121Z,86.73
2018-02-16T02:37:00.232Z,74.13
2018-02-16T02:39:28.352Z,74.70
2018-02-16T02:41:56.538Z,94.87
2018-02-16T02:44:24.658Z,88.57
2018-02-16T02:46:52.766Z,67.50
2018-02-16T02:49:20.910Z,74.93
2018-02-16T02:51:49.172Z,69.97
2018-02-16T02:54:17.280Z,70.30
2018-02-16T02:56:45.426Z,61.87
2018-02-16T02:59:13.571Z,55.30
2018-02-16T03:01:42.454Z,45.57
2018-02-16T03:04:10.557Z,45.73
2018-02-16T03:06:39.457Z,39.70
2018-02-16T03:09:07.616Z,47.53
2018-02-16T03:11:35.768Z,48.33
2018-02-16T03:14:04.664Z,47.90
2018-02-16T03:16:32.764Z,58.90
2018-02-16T03:19:00.971Z,51.20
2018-02-16T03:21:29.085Z,42.03
2018-02-16T03:23:57.207Z,45.10
2018-02-16T03:26:25.309Z,47.80
2018-02-16T03:28:54.075Z,42.30
2018-02-16T03:31:22.173Z,46.07
2018-02-16T03:33:50.289Z,45.60
2018-02-16T03:36:21.107Z,49.50
2018-02-16T03:38:49.217Z,43.80
2018-02-16T03:41:17.319Z,35.17
2018-02-16T03:43:45.423Z,41.23
2018-02-16T03:46:13.559Z,42.40
2018-02-16T03:48:41.767Z,43.50
2018-02-16T03:51:09.954Z,41.77
2018-02-16T03:53:38.049Z,31.93
2018-02-16T03:56:06.487Z,36.37
2018-02-16T03:58:34.607Z,42.90
2018-02-16T04:01:11.551Z,33.97
2018-02-16T04:03:48.638Z,35.97
2018-02-16T04:06:23.748Z,35.47
2018-02-16T04:08:52.120Z,35.60
2018-02-16T04:11:20.272Z,37.13
2018-02-16T04:13:49.669Z,38.97
2018-02-16T04:16:17.902Z,40.30
2018-02-16T04:18:46.120Z,41.47
2018-02-16T04:21:14.376Z,36.50
2018-02-16T04:23:42.618Z,41.60
2018-02-16T04:26:10.774Z,44.90
2018-02-16T04:28:38.876Z,40.27
2018-02-16T04:31:07.258Z,49.80
2018-02-16T04:33:35.384Z,38.30
2018-02-16T04:36:03.562Z,40.23
2018-02-16T04:38:31.658Z,48.80
2018-02-16T04:41:00.540Z,44.87
2018-02-16T04:43:28.685Z,42.57
2018-02-16T04:45:56.790Z,44.60
2018-02-16T04:48:24.911Z,49.03
2018-02-16T04:50:53.020Z,58.00
2018-02-16T04:53:21.904Z,49.10
2018-02-16T04:55:50.015Z,55.50
2018-02-16T04:58:18.135Z,45.23
2018-02-16T05:00:46.255Z,48.77
2018-02-16T05:03:14.361Z,79.27
2018-02-16T05:05:42.497Z,42.40
2018-02-16T05:08:10.633Z,63.77
2018-02-16T05:10:38.741Z,59.07
2018-02-16T05:13:06.845Z,53.97
2018-02-16T05:15:34.967Z,57.10
2018-02-16T05:18:03.840Z,62.27
2018-02-16T05:20:31.937Z,58.33
2018-02-16T05:23:00.810Z,59.80
2018-02-16T05:25:29.800Z,59.57
2018-02-16T05:27:58.026Z,63.10
2018-02-16T05:30:26.238Z,55.60
2018-02-16T05:32:54.460Z,61.73
2018-02-16T05:35:22.565Z,60.00
2018-02-16T05:37:50.688Z,64.37
2018-02-16T05:40:19.590Z,78.07
2018-02-16T05:42:47.694Z,101.27
2018-02-16T05:45:15.812Z,48.93
2018-02-16T05:47:43.968Z,78.00
2018-02-16T05:50:12.105Z,41.83
2018-02-16T05:52:40.252Z,61.27
2018-02-16T05:55:08.386Z,90.23
2018-02-16T05:57:36.502Z,118.50
2018-02-16T06:00:05.386Z,59.13
2018-02-16T06:02:33.488Z,60.23
2018-02-16T06:05:01.609Z,66.10
2018-02-16T06:07:29.726Z,67.73
2018-02-16T06:09:57.832Z,67.03
2018-02-16T06:12:25.964Z,66.23
2018-02-16T06:14:54.073Z,68.83
2018-02-16T06:17:22.189Z,68.87
2018-02-16T06:19:50.361Z,83.10
2018-02-16T06:22:18.500Z,60.07
2018-02-16T06:24:46.737Z,107.10
2018-02-16T06:27:14.968Z,55.30
2018-02-16T06:29:43.149Z,59.07
2018-02-16T06:32:11.239Z,57.90
2018-02-16T06:34:39.347Z,59.93
2018-02-16T06:37:07.458Z,123.87
2018-02-16T06:39:35.573Z,44.30
2018-02-16T06:42:03.665Z,29.43
2018-02-16T06:44:31.753Z,57.70
2018-02-16T06:46:59.931Z,180.90
2018-02-16T06:49:28.036Z,66.47
2018-02-16T06:51:56.155Z,21.33
2018-02-16T06:54:24.267Z,39.80
2018-02-16T06:56:52.389Z,54.73
2018-02-16T06:59:20.508Z,62.90
2018-02-16T07:01:48.632Z,61.17
2018-02-16T07:04:16.748Z,63.23
2018-02-16T07:06:44.832Z,67.30
2018-02-16T07:09:13.187Z,67.70
2018-02-16T07:11:41.292Z,51.93
2018-02-16T07:14:10.210Z,45.47
2018-02-16T07:16:38.321Z,42.20
2018-02-16T07:19:06.422Z,41.23
2018-02-16T07:21:34.518Z,39.83
2018-02-16T07:24:02.668Z,40.33
2018-02-16T07:26:30.768Z,30.77
2018-02-16T07:28:58.888Z,45.43
2018-02-16T07:31:27.041Z,37.80
2018-02-16T07:33:55.144Z,35.17
2018-02-16T07:36:23.261Z,40.00
2018-02-16T07:38:51.382Z,61.07
2018-02-16T07:41:19.506Z,200.03
2018-02-16T07:43:47.611Z,74.70
2018-02-16T07:46:15.723Z,117.00
2018-02-16T07:48:44.583Z,214.67
2018-02-16T07:51:12.682Z,73.50
2018-02-16T07:53:41.655Z,34.17
2018-02-16T07:56:09.765Z,23.23
2018-02-16T07:58:37.883Z,46.37
2018-02-16T08:01:05.981Z,27.47
2018-02-16T08:03:34.092Z,26.07
2018-02-16T08:06:02.225Z,71.63
2018-02-16T08:08:30.328Z,22.27
2018-02-16T08:10:58.459Z,18.87
2018-02-16T08:13:26.547Z,14.13
2018-02-16T08:15:54.708Z,19.57
2018-02-16T08:18:22.792Z,10.30
2018-02-16T08:20:50.893Z,9.57
2018-02-16T08:23:18.992Z,6.80
2018-02-16T08:25:47.126Z,15.40
2018-02-16T08:28:15.204Z,8.93
2018-02-16T08:30:43.309Z,14.30
2018-02-16T08:33:11.393Z,8.73
2018-02-16T08:35:40.282Z,8.37
2018-02-16T08:38:08.378Z,10.50
2018-02-16T08:40:36.571Z,6.87
2018-02-16T08:43:05.538Z,8.37
2018-02-16T08:45:33.687Z,9.33
2018-02-16T08:48:01.787Z,8.20
2018-02-16T08:50:29.876Z,9.23
2018-02-16T08:52:57.988Z,16.57
2018-02-16T08:55:26.084Z,8.73
2018-02-16T08:57:54.179Z,9.00
2018-02-16T09:00:22.299Z,12.63
2018-02-16T09:02:50.425Z,13.10
2018-02-16T09:05:18.547Z,14.77
2018-02-16T09:07:46.657Z,11.07
2018-02-16T09:10:14.770Z,12.80
2018-02-16T09:12:42.871Z,10.10
2018-02-16T09:15:10.963Z,9.73
2018-02-16T09:17:39.085Z,8.27
2018-02-16T09:20:08.609Z,9.20
2018-02-16T09:22:36.703Z,6.87
2018-02-16T09:25:04.884Z,5.97
2018-02-16T09:27:33.053Z,5.90
2018-02-16T09:30:01.182Z,4.27
2018-02-16T09:32:29.265Z,4.50
2018-02-16T09:34:57.489Z,5.37
2018-02-16T09:37:26.684Z,3.20
2018-02-16T09:39:55.169Z,3.90
2018-02-16T09:42:24.039Z,3.13
2018-02-16T09:44:52.128Z,3.13
2018-02-16T09:47:20.248Z,4.50
2018-02-16T09:49:48.334Z,6.20
2018-02-16T09:52:16.448Z,6.47
2018-02-16T09:54:44.544Z,4.47
2018-02-16T09:57:12.628Z,10.03
2018-02-16T09:59:40.741Z,3.17
2018-02-16T10:02:08.838Z,4.60
2018-02-16T10:04:36.928Z,2.80
2018-02-16T10:07:05.019Z,3.50
2018-02-16T10:09:33.140Z,3.43
2018-02-16T10:12:01.495Z,4.37
2018-02-16T10:14:29.632Z,5.17
2018-02-16T10:16:57.777Z,5.90
2018-02-16T10:19:25.867Z,3.77
2018-02-16T10:21:53.977Z,4.87
2018-02-16T10:24:22.057Z,7.63
2018-02-16T10:26:50.157Z,2.70
2018-02-16T10:29:18.325Z,5.60
2018-02-16T10:31:46.509Z,5.30
2018-02-16T10:34:14.624Z,3.97
2018-02-16T10:36:42.735Z,3.20
2018-02-16T10:39:11.423Z,3.20
2018-02-16T10:41:40.306Z,3.40
2018-02-16T10:44:08.388Z,2.97
2018-02-16T10:46:36.497Z,5.17
2018-02-16T10:49:04.612Z,3.60
2018-02-16T10:51:32.728Z,5.17
2018-02-16T10:54:00.836Z,2.93
2018-02-16T10:56:28.947Z,2.17
2018-02-16T10:58:57.049Z,2.83
2018-02-16T11:01:25.162Z,1.67
2018-02-16T11:03:58.807Z,2.10
2018-02-16T11:06:32.456Z,1.70
2018-02-16T11:09:05.995Z,1.33
2018-02-16T11:11:34.077Z,0.97
2018-02-16T11:14:02.182Z,1.30
2018-02-16T11:16:30.294Z,1.50
2018-02-16T11:18:58.384Z,1.77
2018-02-16T11:21:26.516Z,2.43
2018-02-16T11:23:54.608Z,1.60
2018-02-16T11:26:22.735Z,2.23
2018-02-16T11:28:50.828Z,4.17
2018-02-16T11:31:18.949Z,2.27
2018-02-16T11:33:47.336Z,2.17
2018-02-16T11:36:15.443Z,3.30
2018-02-16T11:38:43.544Z,2.80
2018-02-16T11:41:11.864Z,2.50
2018-02-16T11:43:39.964Z,3.93
2018-02-16T11:46:08.072Z,1.73
2018-02-16T11:48:36.237Z,2.10
2018-02-16T11:51:04.329Z,1.87
2018-02-16T11:53:32.496Z,2.77
2018-02-16T11:56:00.978Z,2.10
2018-02-16T11:58:29.107Z,3.33
2018-02-16T12:00:57.235Z,3.07
2018-02-16T12:03:25.329Z,1.93
2018-02-16T12:05:53.809Z,2.73
2018-02-16T12:08:21.895Z,3.47
2018-02-16T12:10:50.493Z,2.50
2018-02-16T12:13:18.619Z,3.60
2018-02-16T12:15:46.809Z,5.27
2018-02-16T12:18:14.893Z,4.07
2018-02-16T12:20:43.058Z,4.90
2018-02-16T12:23:11.165Z,3.37
2018-02-16T12:25:39.255Z,4.93
2018-02-16T12:28:07.373Z,2.90
2018-02-16T12:30:35.470Z,2.60
2018-02-16T12:33:03.572Z,4.10
2018-02-16T12:35:31.971Z,2.87
2018-02-16T12:38:00.082Z,3.07
2018-02-16T12:40:28.970Z,3.47
2018-02-16T12:42:57.097Z,5.17
2018-02-16T12:45:25.199Z,4.90
2018-02-16T12:47:53.290Z,2.70
2018-02-16T12:50:21.396Z,3.40
2018-02-16T12:52:49.538Z,2.90
2018-02-16T12:55:17.846Z,6.33
2018-02-16T12:57:45.926Z,3.63
2018-02-16T13:00:14.077Z,3.07
2018-02-16T13:02:42.292Z,2.80
2018-02-16T13:05:10.458Z,2.57
2018-02-16T13:07:38.717Z,3.50
2018-02-16T13:10:06.816Z,2.83
2018-02-16T13:12:34.910Z,3.33
2018-02-16T13:15:03.009Z,3.13
2018-02-16T13:17:31.892Z,3.63
2018-02-16T13:20:00.740Z,4.83
2018-02-16T13:22:28.905Z,3.63
2018-02-16T13:24:56.973Z,2.97
2018-02-16T13:27:25.072Z,3.50
2018-02-16T13:29:53.176Z,3.80
2018-02-16T13:32:21.265Z,2.80
2018-02-16T13:34:49.387Z,3.73
2018-02-16T13:37:17.478Z,4.90
2018-02-16T13:39:45.603Z,4.60
2018-02-16T13:42:13.707Z,6.07
2018-02-16T13:44:41.804Z,3.30
2018-02-16T13:47:09.909Z,3.87
2018-02-16T13:49:38.122Z,4.43
2018-02-16T13:52:06.228Z,3.50
2018-02-16T13:54:34.319Z,4.10
2018-02-16T13:57:02.436Z,4.27
2018-02-16T13:59:30.556Z,4.13
2018-02-16T14:01:58.668Z,4.30
2018-02-16T14:04:26.766Z,6.27
2018-02-16T14:06:55.315Z,4.63
2018-02-16T14:09:23.430Z,6.33
2018-02-16T14:11:51.512Z,5.13
2018-02-16T14:14:19.623Z,5.93
2018-02-16T14:16:48.050Z,4.00
2018-02-16T14:19:16.163Z,4.53
2018-02-16T14:21:44.288Z,3.87
2018-02-16T14:24:12.518Z,7.13
2018-02-16T14:26:40.632Z,3.93
2018-02-16T14:29:08.757Z,4.50
2018-02-16T14:31:36.900Z,4.00
2018-02-16T14:34:04.988Z,3.73
2018-02-16T14:36:33.156Z,4.63
2018-02-16T14:39:01.250Z,5.17
2018-02-16T14:41:29.395Z,5.83
2018-02-16T14:43:58.259Z,5.77
2018-02-16T14:46:26.365Z,8.43
2018-02-16T14:48:55.236Z,5.73
2018-02-16T14:51:23.328Z,7.17
2018-02-16T14:53:51.439Z,6.90
2018-02-16T14:56:19.575Z,8.57
2018-02-16T14:58:47.754Z,12.40
2018-02-16T15:01:16.629Z,8.73
2018-02-16T15:03:44.733Z,9.03
2018-02-16T15:06:12.843Z,8.50
2018-02-16T15:08:40.953Z,10.63
2018-02-16T15:11:09.135Z,13.20
2018-02-16T15:13:37.242Z,13.77
2018-02-16T15:16:05.337Z,13.97
2018-02-16T15:18:33.426Z,16.83
2018-02-16T15:21:01.534Z,15.10
2018-02-16T15:23:29.634Z,16.97
2018-02-16T15:25:57.739Z,17.40
2018-02-16T15:28:25.872Z,17.33
2018-02-16T15:30:54.714Z,19.90
2018-02-16T15:33:22.816Z,19.60
2018-02-16T15:35:50.912Z,20.07
2018-02-16T15:38:19.010Z,18.83
2018-02-16T15:40:47.205Z,29.37
2018-02-16T15:43:16.096Z,23.83
2018-02-16T15:45:44.208Z,22.20
2018-02-16T15:48:12.310Z,20.20
2018-02-16T15:50:40.449Z,34.43
2018-02-16T15:53:08.514Z,22.07
2018-02-16T15:55:36.599Z,19.60
2018-02-16T15:58:04.709Z,23.10
2018-02-16T16:00:32.819Z,24.13
2018-02-16T16:03:00.946Z,18.60
2018-02-16T16:05:29.103Z,22.13
2018-02-16T16:07:57.209Z,32.20
2018-02-16T16:10:25.382Z,23.97
2018-02-16T16:12:53.472Z,19.60
2018-02-16T16:15:21.693Z,22.17
2018-02-16T16:17:49.820Z,23.53
2018-02-16T16:26:51.291Z,21.63
2018-02-16T16:29:19.563Z,17.87
2018-02-16T16:31:47.776Z,23.10
2018-02-16T16:34:16.006Z,21.57
2018-02-16T16:36:45.036Z,19.63
2018-02-16T16:39:13.900Z,20.73
2018-02-16T16:41:41.984Z,16.53
2018-02-16T16:44:10.105Z,16.07
2018-02-16T16:46:38.288Z,20.83
2018-02-16T16:49:06.427Z,18.43
2018-02-16T16:51:34.533Z,22.30
2018-02-16T16:54:02.640Z,19.93
2018-02-16T16:56:30.764Z,16.87
2018-02-16T16:58:58.878Z,15.73
2018-02-16T17:01:27.014Z,20.37
2018-02-16T17:03:55.168Z,19.20
2018-02-16T17:06:23.323Z,17.50
2018-02-16T17:08:51.456Z,23.37
2018-02-16T17:11:19.620Z,35.87
2018-02-16T17:13:48.109Z,29.17
2018-02-16T17:16:16.247Z,28.10
2018-02-16T17:18:48.621Z,18.13
2018-02-16T17:21:16.745Z,21.67
2018-02-16T17:23:44.945Z,24.37
2018-02-16T17:26:13.289Z,19.33
2018-02-16T17:28:41.474Z,21.37
2018-02-16T17:31:10.305Z,23.43
2018-02-16T17:33:38.559Z,23.57
2018-02-16T17:36:06.693Z,21.97
2018-02-16T17:38:34.853Z,22.77
2018-02-16T17:41:03.289Z,25.37
2018-02-16T17:43:31.665Z,25.80
2018-02-16T17:45:59.833Z,25.87
2018-02-16T17:48:28.043Z,27.17
2018-02-16T17:50:56.244Z,24.90
2018-02-16T17:53:24.369Z,35.60
2018-02-16T17:55:52.478Z,32.20
2018-02-16T17:58:21.149Z,31.90
2018-02-16T18:00:49.382Z,30.33
2018-02-16T18:03:17.529Z,40.70
2018-02-16T18:05:45.627Z,53.03
2018-02-16T18:08:13.794Z,44.73
2018-02-16T18:10:42.246Z,40.43
2018-02-16T18:13:10.431Z,45.50
2018-02-16T18:15:38.570Z,52.80
2018-02-16T18:18:06.669Z,44.53
2018-02-16T18:20:34.814Z,43.93
2018-02-16T18:23:02.954Z,51.60
2018-02-16T18:25:31.094Z,62.97
2018-02-16T18:27:59.238Z,59.60
2018-02-16T18:30:27.390Z,60.60
2018-02-16T18:32:55.523Z,57.57
2018-02-16T18:35:23.694Z,36.57
2018-02-16T18:37:51.863Z,51.30
2018-02-16T18:40:19.998Z,40.30
2018-02-16T18:42:48.133Z,42.33
2018-02-16T18:45:16.256Z,54.20
2018-02-16T18:47:44.386Z,63.80
2018-02-16T18:50:12.578Z,38.97
2018-02-16T18:52:41.462Z,38.50
2018-02-16T18:55:09.609Z,36.60
2018-02-16T18:57:37.733Z,41.77
2018-02-16T19:00:10.167Z,56.70
2018-02-16T19:02:38.309Z,62.70
2018-02-16T19:05:06.481Z,109.27
2018-02-16T19:07:34.629Z,117.97
2018-02-16T19:10:02.767Z,119.83
2018-02-16T19:12:30.873Z,67.23
2018-02-16T19:14:59.009Z,69.93
2018-02-16T19:17:28.085Z,71.37
2018-02-16T19:19:56.321Z,71.60
2018-02-16T19:22:24.697Z,59.93
2018-02-16T19:24:52.904Z,48.40
2018-02-16T19:27:25.580Z,45.33
2018-02-16T19:29:53.710Z,57.53
2018-02-16T19:32:21.836Z,61.10
2018-02-16T19:34:49.947Z,90.63
2018-02-16T19:37:19.814Z,126.13
2018-02-16T19:39:48.492Z,118.93
2018-02-16T19:42:16.619Z,102.30
2018-02-16T19:44:45.532Z,107.73
2018-02-16T19:47:14.225Z,82.90
2018-02-16T19:49:42.732Z,94.57
2018-02-16T19:52:11.895Z,93.43
2018-02-16T19:54:40.669Z,102.53
2018-02-16T19:57:08.865Z,165.90
2018-02-16T19:59:36.995Z,163.27
2018-02-16T20:02:05.333Z,155.53
2018-02-16T20:04:33.526Z,154.80
2018-02-16T20:07:01.813Z,166.17
2018-02-16T20:09:30.048Z,187.33
2018-02-16T20:12:06.555Z,169.30
2018-02-16T20:14:34.812Z,161.47
2018-02-16T20:17:03.121Z,169.07
2018-02-16T20:19:31.348Z,170.80
2018-02-16T20:21:59.497Z,171.90
2018-02-16T20:24:27.657Z,166.07
2018-02-16T20:26:55.796Z,134.27
2018-02-16T20:29:23.948Z,150.93
2018-02-16T20:31:52.071Z,141.03
2018-02-16T20:34:21.051Z,122.10
2018-02-16T20:36:49.653Z,106.47
2018-02-16T20:39:19.548Z,107.13
2018-02-16T20:41:47.731Z,96.90
2018-02-16T20:44:16.573Z,113.27
2018-02-16T20:46:44.695Z,93.83
2018-02-16T20:49:12.847Z,113.90
2018-02-16T20:51:41.026Z,122.17
2018-02-16T20:54:10.494Z,128.10
2018-02-16T20:56:38.648Z,109.87
2018-02-16T20:59:06.820Z,118.40
2018-02-16T21:01:35.247Z,98.07
2018-02-16T21:04:03.938Z,126.90
2018-02-16T21:06:32.050Z,131.33
2018-02-16T21:09:00.224Z,157.07
2018-02-16T21:11:28.367Z,147.87
2018-02-16T21:13:56.514Z,203.77
2018-02-16T21:16:26.430Z,354.10
2018-02-16T21:18:54.644Z,358.03
2018-02-16T21:21:23.682Z,376.47
2018-02-16T21:23:56.868Z,290.47
2018-02-16T21:26:37.293Z,340.83
2018-02-16T21:29:05.438Z,374.63
2018-02-16T21:31:34.142Z,412.33
2018-02-16T21:34:02.293Z,399.93
2018-02-16T21:36:30.447Z,373.20
2018-02-16T21:38:58.576Z,338.07
2018-02-16T21:41:31.549Z,371.00
2018-02-16T21:44:03.595Z,371.43
2018-02-16T21:46:32.415Z,373.73
2018-02-16T21:49:04.872Z,368.17
2018-02-16T21:51:33.012Z,355.17
2018-02-16T21:54:01.289Z,350.43
2018-02-16T21:56:29.412Z,377.83
2018-02-16T21:58:57.553Z,374.73
2018-02-16T22:14:16.240Z,320.37
2018-02-16T22:16:48.304Z,307.13
2018-02-16T22:19:17.208Z,421.83
2018-02-16T22:21:46.138Z,442.43
2018-02-16T22:24:14.258Z,327.07
2018-02-16T22:26:42.384Z,453.90
2018-02-16T22:29:10.606Z,507.50
2018-02-16T22:31:38.864Z,447.43
2018-02-16T22:34:07.107Z,395.50
2018-02-16T22:36:35.228Z,419.80
2018-02-16T22:39:03.350Z,388.17
2018-02-16T22:41:31.503Z,501.07
2018-02-16T22:43:59.640Z,367.90
2018-02-16T22:46:27.856Z,468.97
2018-02-16T22:48:56.035Z,296.20
2018-02-16T22:51:24.167Z,440.97
2018-02-16T22:53:53.868Z,503.03
2018-02-16T22:56:27.892Z,511.60
2018-02-16T22:58:56.049Z,482.50
2018-02-16T23:01:24.173Z,423.87
2018-02-16T23:03:52.369Z,322.97
2018-02-16T23:06:20.579Z,466.17
2018-02-16T23:08:48.767Z,396.87
2018-02-16T23:11:16.924Z,358.77
2018-02-16T23:13:45.106Z,362.13
2018-02-16T23:29:15.205Z,243.20
2018-02-16T23:34:28.709Z,296.33
2018-02-16T23:36:56.978Z,320.73
2018-02-16T23:39:25.220Z,290.50
2018-02-16T23:41:57.323Z,261.13
2018-02-16T23:44:25.560Z,300.13
2018-02-16T23:46:53.785Z,259.53
2018-02-16T23:49:22.068Z,220.17
2018-02-16T23:51:50.272Z,229.87
2018-02-16T23:54:18.549Z,256.80
2018-02-16T23:56:46.783Z,242.40
2018-02-16T23:59:14.983Z,205.27
